Time;durP1;ratioP1;P1;durP2;ratioP2;P2;SDS_P1;SDS_P2;PMS_P1;PMS_P2;Temp;Humidity;BMP_temperature;BMP_pressure;BME280_temperature;BME280_humidity;BME280_pressure;Samples;Min_cycle;Max_cycle;Signal;HPM_P1;HPM_P2
2022/06/28 00:01:40;;;;;;;10.60;9.30;;;23.10;99.90;;;;;;4991558;28;20203;-66
2022/06/28 00:04:07;;;;;;;11.53;9.17;;;23.10;99.90;;;;;;4990359;28;20228;-66
2022/06/28 00:06:34;;;;;;;10.67;9.50;;;23.10;99.90;;;;;;4990953;28;20209;-67
2022/06/28 00:09:03;;;;;;;10.20;9.10;;;23.00;99.90;;;;;;4988561;28;20204;-66
2022/06/28 00:11:30;;;;;;;14.80;10.30;;;22.90;99.90;;;;;;4987978;28;20276;-67
2022/06/28 00:13:57;;;;;;;15.07;9.83;;;22.90;99.90;;;;;;4988900;28;20291;-66
2022/06/28 00:16:23;;;;;;;13.47;9.87;;;22.90;99.90;;;;;;4990391;28;20226;-69
2022/06/28 00:18:51;;;;;;;13.73;10.50;;;22.90;99.90;;;;;;4990256;28;20286;-66
2022/06/28 00:21:18;;;;;;;15.70;11.03;;;22.90;99.90;;;;;;4991038;28;20211;-66
2022/06/28 00:23:45;;;;;;;11.90;10.60;;;22.80;99.90;;;;;;4994421;28;20378;-67
2022/06/28 00:26:13;;;;;;;12.77;10.20;;;22.80;99.90;;;;;;4990103;28;20212;-67
2022/06/28 00:28:40;;;;;;;11.90;10.07;;;22.80;99.90;;;;;;4988788;28;20287;-68
2022/06/28 00:31:07;;;;;;;13.53;10.20;;;22.80;99.90;;;;;;4971050;28;20211;-68
2022/06/28 00:33:34;;;;;;;12.67;9.93;;;22.80;99.90;;;;;;4978226;28;20622;-68
2022/06/28 00:36:01;;;;;;;11.77;9.77;;;22.80;99.90;;;;;;4990077;28;20218;-66
2022/06/28 00:38:28;;;;;;;13.97;10.23;;;22.80;99.90;;;;;;4989337;28;20227;-67
2022/06/28 00:40:55;;;;;;;11.50;9.97;;;22.80;99.90;;;;;;4990868;28;20222;-67
2022/06/28 00:43:24;;;;;;;13.40;10.40;;;22.80;99.90;;;;;;4988239;28;20212;-68
2022/06/28 00:45:52;;;;;;;12.87;10.30;;;22.80;99.90;;;;;;4990279;28;20228;-66
2022/06/28 00:48:19;;;;;;;12.63;11.10;;;22.70;99.90;;;;;;4990232;28;20209;-66
2022/06/28 00:50:46;;;;;;;13.23;10.83;;;22.70;99.90;;;;;;4990034;28;20214;-66
2022/06/28 00:53:17;;;;;;;14.37;10.97;;;22.70;99.90;;;;;;4988569;28;20206;-67
2022/06/28 00:55:45;;;;;;;15.47;11.03;;;22.60;99.90;;;;;;4970806;28;20285;-67
2022/06/28 00:58:12;;;;;;;14.37;9.77;;;22.60;99.90;;;;;;4970723;28;20243;-66
2022/06/28 01:00:43;;;;;;;13.87;10.23;;;22.60;99.90;;;;;;4970964;28;20297;-67
2022/06/28 01:03:11;;;;;;;11.67;10.20;;;22.50;99.90;;;;;;4973830;28;20204;-65
2022/06/28 01:05:40;;;;;;;13.83;10.07;;;22.60;99.90;;;;;;4989706;28;20219;-66
2022/06/28 01:08:07;;;;;;;11.83;10.03;;;22.50;99.90;;;;;;4989828;28;20214;-67
2022/06/28 01:10:34;;;;;;;10.87;9.23;;;22.50;99.90;;;;;;4990429;28;20642;-67
2022/06/28 01:13:01;;;;;;;11.03;9.27;;;22.50;99.90;;;;;;4988758;28;20293;-67
2022/06/28 01:15:28;;;;;;;11.23;9.23;;;22.50;99.90;;;;;;4990117;28;20214;-66
2022/06/28 01:17:57;;;;;;;12.40;10.00;;;22.50;99.90;;;;;;4990297;28;20231;-66
2022/06/28 01:20:24;;;;;;;11.13;9.80;;;22.50;99.90;;;;;;4989706;28;20280;-67
2022/06/28 01:22:54;;;;;;;10.00;9.00;;;22.50;99.90;;;;;;4989286;28;20295;-67
2022/06/28 01:25:23;;;;;;;12.47;9.50;;;22.50;99.90;;;;;;4989652;28;20224;-69
2022/06/28 01:27:51;;;;;;;12.43;10.23;;;22.50;99.90;;;;;;4989822;28;20210;-68
2022/06/28 01:30:18;;;;;;;11.27;9.77;;;22.50;99.90;;;;;;4988913;28;20295;-68
2022/06/28 01:32:45;;;;;;;11.47;9.87;;;22.50;99.90;;;;;;4988922;28;20295;-68
2022/06/28 01:35:12;;;;;;;12.57;9.93;;;22.50;99.90;;;;;;4989919;28;20205;-69
2022/06/28 01:37:39;;;;;;;12.97;9.67;;;22.50;99.90;;;;;;4989698;28;20287;-69
2022/06/28 01:40:09;;;;;;;11.63;9.63;;;22.50;99.90;;;;;;4989861;28;20702;-68
2022/06/28 01:42:37;;;;;;;11.33;9.47;;;22.50;99.90;;;;;;4988462;28;20578;-69
2022/06/28 01:45:04;;;;;;;13.60;10.20;;;22.50;99.90;;;;;;4989317;28;20274;-68
2022/06/28 01:47:36;;;;;;;11.77;10.23;;;22.50;99.90;;;;;;4990147;28;20295;-67
2022/06/28 01:50:04;;;;;;;14.80;10.73;;;22.50;99.90;;;;;;4989843;28;20283;-67
2022/06/28 01:52:31;;;;;;;11.60;9.97;;;22.50;99.90;;;;;;4988100;28;20322;-69
2022/06/28 01:54:58;;;;;;;11.40;9.97;;;22.40;99.90;;;;;;4989686;28;20716;-69
2022/06/28 01:57:26;;;;;;;10.83;8.93;;;22.40;99.90;;;;;;4989882;28;20629;-69
2022/06/28 01:59:53;;;;;;;10.20;8.87;;;22.40;99.90;;;;;;4989670;28;20606;-70
2022/06/28 02:02:20;;;;;;;12.33;10.30;;;22.40;99.90;;;;;;4988606;28;20218;-69
2022/06/28 02:04:47;;;;;;;12.73;9.40;;;22.40;99.90;;;;;;4989424;28;20281;-68
2022/06/28 02:07:14;;;;;;;10.53;8.67;;;22.40;99.90;;;;;;4988462;28;20264;-68
2022/06/28 02:09:41;;;;;;;12.27;9.50;;;22.40;99.90;;;;;;4989844;28;20207;-68
2022/06/28 02:12:08;;;;;;;11.93;9.30;;;22.50;99.90;;;;;;4988706;28;20223;-69
2022/06/28 02:14:37;;;;;;;11.57;9.50;;;22.50;99.90;;;;;;4970241;28;20205;-68
2022/06/28 02:17:04;;;;;;;9.00;8.10;;;22.50;99.90;;;;;;4969136;28;20209;-68
2022/06/28 02:19:31;;;;;;;9.53;8.63;;;22.60;99.90;;;;;;4983767;28;20699;-69
2022/06/28 02:21:58;;;;;;;10.97;8.90;;;22.60;99.90;;;;;;4989368;28;20672;-69
2022/06/28 02:24:25;;;;;;;9.93;8.53;;;22.70;99.90;;;;;;4970742;28;20211;-70
2022/06/28 02:26:52;;;;;;;11.57;8.93;;;22.70;99.90;;;;;;4969758;28;20317;-69
2022/06/28 02:29:19;;;;;;;12.00;8.57;;;22.80;99.90;;;;;;4981365;28;20635;-71
2022/06/28 02:31:47;;;;;;;10.67;8.90;;;22.90;99.90;;;;;;4989104;28;20298;-69
2022/06/28 02:40:21;;;;;;;10.17;8.63;;;22.90;99.90;;;;;;4989512;28;20649;-68
2022/06/28 02:42:30;;;;;;;10.27;9.10;;;23.10;99.90;;;;;;4969868;28;20654;-68
2022/06/28 02:44:57;;;;;;;10.70;9.47;;;23.20;99.90;;;;;;4969371;28;20234;-70
2022/06/28 02:47:25;;;;;;;11.63;9.47;;;23.30;99.90;;;;;;4969752;28;20217;-69
2022/06/28 02:49:52;;;;;;;10.80;9.33;;;23.30;99.90;;;;;;4988143;28;20741;-68
2022/06/28 02:52:19;;;;;;;11.90;10.00;;;23.40;99.90;;;;;;4991703;28;20239;-68
2022/06/28 02:54:46;;;;;;;11.67;9.70;;;23.50;99.90;;;;;;4992054;28;20293;-69
2022/06/28 02:57:13;;;;;;;13.43;10.10;;;23.50;99.90;;;;;;4992549;28;20695;-69
2022/06/28 02:59:40;;;;;;;11.40;10.20;;;23.50;99.90;;;;;;4992360;28;20212;-67
2022/06/28 03:02:07;;;;;;;11.80;9.90;;;23.60;99.90;;;;;;4991346;28;20209;-70
2022/06/28 03:04:35;;;;;;;12.20;9.53;;;23.60;99.90;;;;;;4974400;28;20251;-69
2022/06/28 03:07:02;;;;;;;11.87;9.73;;;23.70;99.90;;;;;;4972235;28;20298;-69
2022/06/28 03:09:29;;;;;;;11.63;9.50;;;23.70;99.90;;;;;;4983694;28;20217;-69
2022/06/28 03:11:55;;;;;;;11.40;9.60;;;23.80;99.90;;;;;;4992025;28;20302;-71
2022/06/28 03:14:22;;;;;;;12.57;10.00;;;23.80;99.90;;;;;;4991321;28;20213;-68
2022/06/28 03:16:49;;;;;;;12.63;9.93;;;23.90;99.90;;;;;;4991357;28;20301;-71
2022/06/28 03:19:16;;;;;;;10.43;9.33;;;23.90;99.90;;;;;;4990627;28;20213;-72
2022/06/28 03:21:45;;;;;;;12.17;10.13;;;24.00;99.90;;;;;;4992146;28;20264;-69
2022/06/28 03:24:12;;;;;;;12.63;9.90;;;24.10;99.90;;;;;;4990335;28;20256;-69
2022/06/28 03:26:39;;;;;;;10.93;9.40;;;24.10;99.90;;;;;;4991566;28;20259;-69
2022/06/28 03:29:06;;;;;;;11.40;9.43;;;24.10;99.90;;;;;;4990426;28;20211;-70
2022/06/28 03:31:33;;;;;;;12.30;9.73;;;24.20;99.90;;;;;;4991885;28;20215;-68
2022/06/28 03:33:59;;;;;;;11.80;9.90;;;24.30;99.90;;;;;;4990636;28;20237;-69
2022/06/28 03:36:26;;;;;;;10.60;9.00;;;24.30;99.90;;;;;;4990972;28;20207;-68
2022/06/28 03:38:55;;;;;;;12.20;8.97;;;24.30;99.90;;;;;;4990507;28;20635;-69
2022/06/28 03:41:25;;;;;;;11.67;9.43;;;24.40;99.90;;;;;;4986540;28;20655;-70
2022/06/28 03:43:53;;;;;;;12.50;9.20;;;24.40;99.90;;;;;;4979437;28;20301;-71
2022/06/28 03:46:21;;;;;;;12.10;9.13;;;24.50;99.90;;;;;;4972447;28;20333;-69
2022/06/28 03:48:48;;;;;;;13.83;10.33;;;24.50;99.90;;;;;;4975128;28;20286;-69
2022/06/28 03:51:16;;;;;;;11.30;9.60;;;24.60;99.90;;;;;;4991466;28;20790;-68
2022/06/28 03:53:43;;;;;;;11.93;10.03;;;24.60;99.90;;;;;;4980375;28;20260;-70
2022/06/28 03:56:11;;;;;;;11.57;9.40;;;24.60;99.90;;;;;;4987234;28;20290;-69
2022/06/28 03:58:38;;;;;;;13.13;10.13;;;24.70;99.90;;;;;;4990875;28;20248;-70
2022/06/28 04:01:05;;;;;;;11.87;10.20;;;24.70;99.90;;;;;;4991571;28;20304;-69
2022/06/28 04:03:32;;;;;;;12.17;9.73;;;24.70;99.90;;;;;;4990278;28;20305;-69
2022/06/28 04:05:59;;;;;;;10.13;9.10;;;24.80;99.90;;;;;;4985444;28;20253;-69
2022/06/28 04:08:26;;;;;;;16.00;10.83;;;24.80;99.90;;;;;;4991477;28;20301;-68
2022/06/28 04:11:13;;;;;;;13.13;10.83;;;24.90;99.90;;;;;;4991231;28;20228;-68
2022/06/28 04:13:43;;;;;;;15.73;10.53;;;25.00;99.90;;;;;;4990503;28;20217;-69
2022/06/28 04:16:10;;;;;;;12.10;9.03;;;25.10;99.90;;;;;;5003469;28;20203;-70
2022/06/28 04:18:37;;;;;;;13.97;9.13;;;25.10;99.90;;;;;;4990531;28;20214;-69
2022/06/28 04:21:04;;;;;;;20.90;11.00;;;25.20;99.90;;;;;;4991414;28;20623;-71
2022/06/28 04:23:32;;;;;;;19.30;11.35;;;25.30;99.90;;;;;;4981828;28;20259;-68
2022/06/28 04:25:58;;;;;;;12.32;9.30;;;25.30;99.90;;;;;;4987993;28;20682;-71
2022/06/28 04:28:25;;;;;;;11.27;8.70;;;25.40;99.90;;;;;;4990315;28;20300;-70
2022/06/28 04:30:54;;;;;;;9.85;7.82;;;25.50;99.90;;;;;;4990652;28;20750;-70
2022/06/28 04:33:21;;;;;;;10.57;8.20;;;25.60;99.90;;;;;;4990216;28;21893;-70
2022/06/28 04:35:48;;;;;;;16.17;7.70;;;25.70;99.90;;;;;;5019555;28;20209;-69
2022/06/28 04:38:15;;;;;;;10.38;8.35;;;25.80;99.90;;;;;;5093535;28;20294;-69
2022/06/28 04:40:41;;;;;;;11.57;8.45;;;25.90;99.90;;;;;;5093338;28;20294;-69
2022/06/28 04:43:09;;;;;;;10.45;8.32;;;25.90;99.90;;;;;;5065483;28;20299;-70
2022/06/28 04:45:36;;;;;;;9.73;8.20;;;26.00;99.90;;;;;;4985785;28;20652;-70
2022/06/28 04:48:04;;;;;;;9.95;7.90;;;26.00;99.90;;;;;;5000328;28;20208;-71
2022/06/28 04:50:31;;;;;;;12.52;9.32;;;26.10;99.90;;;;;;5023119;28;20210;-68
2022/06/28 04:52:59;;;;;;;9.02;8.10;;;26.20;99.90;;;;;;5026728;28;20241;-71
2022/06/28 04:55:26;;;;;;;10.05;7.80;;;26.30;99.90;;;;;;5033466;28;20310;-70
2022/06/28 04:57:53;;;;;;;14.57;7.85;;;26.40;99.90;;;;;;5031007;28;20290;-69
2022/06/28 05:00:20;;;;;;;13.00;9.95;;;26.50;99.90;;;;;;5026696;28;20204;-70
2022/06/28 05:02:47;;;;;;;10.52;8.38;;;26.50;99.90;;;;;;5025661;28;20598;-70
2022/06/28 05:05:15;;;;;;;11.35;8.40;;;26.60;99.90;;;;;;5044604;28;20227;-69
2022/06/28 05:07:42;;;;;;;13.80;7.50;;;26.60;99.90;;;;;;5029620;28;20210;-70
2022/06/28 05:10:09;;;;;;;13.15;8.27;;;26.70;99.90;;;;;;5062369;28;20208;-69
2022/06/28 05:12:36;;;;;;;9.45;7.65;;;26.80;99.90;;;;;;5091902;28;20208;-70
2022/06/28 05:15:04;;;;;;;8.50;6.72;;;26.80;99.90;;;;;;4988865;28;20215;-71
2022/06/28 05:17:31;;;;;;;10.20;7.22;;;27.00;99.90;;;;;;5008632;28;20621;-68
2022/06/28 05:19:58;;;;;;;8.10;6.93;;;27.00;99.90;;;;;;5093285;28;20256;-72
2022/06/28 05:22:26;;;;;;;9.45;7.40;;;27.10;99.90;;;;;;5057649;28;20649;-69
2022/06/28 05:24:53;;;;;;;9.48;7.10;;;27.20;99.90;;;;;;4988959;28;20209;-69
2022/06/28 05:27:20;;;;;;;7.32;6.07;;;27.20;99.90;;;;;;4999080;28;20658;-69
2022/06/28 05:29:47;;;;;;;10.63;6.40;;;27.30;99.90;;;;;;5091776;28;20209;-70
2022/06/28 05:32:14;;;;;;;6.65;5.93;;;27.40;99.90;;;;;;5092002;28;20270;-70
2022/06/28 05:34:40;;;;;;;9.93;6.57;;;27.50;99.90;;;;;;5017942;28;20524;-72
2022/06/28 05:37:07;;;;;;;6.97;6.03;;;27.50;99.90;;;;;;5017885;28;20644;-69
2022/06/28 05:39:35;;;;;;;13.65;6.78;;;27.60;99.90;;;;;;5034923;28;20261;-70
2022/06/28 05:42:02;;;;;;;9.25;6.43;;;27.60;99.90;;;;;;5038184;28;20204;-68
2022/06/28 05:44:29;;;;;;;10.20;7.15;;;27.80;99.90;;;;;;5047847;28;20300;-69
2022/06/28 05:46:56;;;;;;;8.35;7.30;;;27.80;99.90;;;;;;5037098;28;20236;-70
2022/06/28 05:49:23;;;;;;;9.35;6.60;;;27.90;99.90;;;;;;5037142;28;20205;-68
2022/06/28 05:51:50;;;;;;;7.22;5.88;;;28.00;99.90;;;;;;5031500;28;21610;-69
2022/06/28 05:54:17;;;;;;;8.18;5.53;;;28.00;99.90;;;;;;5033512;28;20745;-69
2022/06/28 05:56:45;;;;;;;6.90;5.63;;;28.10;99.90;;;;;;4997598;28;20293;-69
2022/06/28 05:59:12;;;;;;;13.00;6.20;;;28.20;99.90;;;;;;5067312;28;20205;-69
2022/06/28 06:01:39;;;;;;;7.03;5.20;;;28.20;99.90;;;;;;5089736;28;20206;-67
2022/06/28 06:04:06;;;;;;;12.80;5.30;;;28.30;99.90;;;;;;5001709;28;20700;-71
2022/06/28 06:06:33;;;;;;;6.00;5.10;;;28.30;99.90;;;;;;4989181;28;20237;-69
2022/06/28 06:09:00;;;;;;;7.97;6.35;;;28.30;99.90;;;;;;4989227;28;20232;-70
2022/06/28 06:11:27;;;;;;;9.02;5.30;;;28.30;99.90;;;;;;4989383;28;20213;-68
2022/06/28 06:13:56;;;;;;;12.85;4.80;;;28.40;99.90;;;;;;4979919;28;20217;-71
2022/06/28 06:16:23;;;;;;;8.43;5.30;;;28.40;99.90;;;;;;4970016;28;20272;-69
2022/06/28 06:18:50;;;;;;;11.20;5.35;;;28.40;99.90;;;;;;4980034;28;20206;-68
2022/06/28 06:21:17;;;;;;;8.63;4.93;;;28.50;99.90;;;;;;4989472;28;20210;-69
2022/06/28 06:23:44;;;;;;;6.50;4.88;;;28.60;99.90;;;;;;4989227;28;20210;-68
2022/06/28 06:26:11;;;;;;;8.45;5.43;;;28.70;99.90;;;;;;4993271;28;20250;-71
2022/06/28 06:28:38;;;;;;;5.53;4.55;;;28.70;99.90;;;;;;4994743;28;20215;-70
2022/06/28 06:31:07;;;;;;;5.90;4.90;;;28.80;99.90;;;;;;4993373;28;20301;-73
2022/06/28 06:33:35;;;;;;;5.63;5.00;;;28.80;99.90;;;;;;4990517;28;20294;-72
2022/06/28 06:36:02;;;;;;;7.70;4.90;;;28.90;99.90;;;;;;4992162;28;20297;-70
2022/06/28 06:38:29;;;;;;;7.43;5.35;;;28.90;99.90;;;;;;4991522;28;20203;-70
2022/06/28 06:40:58;;;;;;;8.45;4.80;;;29.00;99.90;;;;;;4992373;28;20298;-69
2022/06/28 06:43:26;;;;;;;5.85;4.28;;;29.00;99.90;;;;;;4991384;28;20207;-70
2022/06/28 06:45:53;;;;;;;7.05;4.43;;;29.10;99.90;;;;;;4992586;28;20223;-69
2022/06/28 06:48:21;;;;;;;6.80;4.40;;;29.10;99.90;;;;;;4992207;28;20554;-71
2022/06/28 06:50:48;;;;;;;7.47;4.82;;;29.20;99.90;;;;;;4992507;28;20246;-69
2022/06/28 06:53:15;;;;;;;13.25;4.85;;;29.20;99.90;;;;;;4988488;28;20325;-69
2022/06/28 06:55:42;;;;;;;8.35;4.75;;;29.20;99.90;;;;;;4988571;28;20215;-68
2022/06/28 06:58:09;;;;;;;9.68;5.80;;;29.20;99.90;;;;;;4983261;28;20207;-68
2022/06/28 07:00:36;;;;;;;8.13;4.32;;;29.30;99.90;;;;;;4972703;28;20627;-70
2022/06/28 07:03:03;;;;;;;7.15;4.25;;;29.40;99.90;;;;;;4973197;28;20213;-69
2022/06/28 07:05:32;;;;;;;4.95;4.53;;;29.40;99.90;;;;;;4991976;28;20215;-69
2022/06/28 07:07:59;;;;;;;5.10;4.03;;;29.40;99.90;;;;;;4974484;28;20237;-69
2022/06/28 07:10:26;;;;;;;8.02;4.30;;;29.40;99.90;;;;;;4972635;28;20232;-69
2022/06/28 07:12:53;;;;;;;11.77;5.03;;;29.40;99.90;;;;;;4972143;28;20298;-69
2022/06/28 07:15:20;;;;;;;8.85;4.53;;;29.50;99.90;;;;;;4989036;28;20295;-70
2022/06/28 07:17:47;;;;;;;6.03;4.40;;;29.60;99.90;;;;;;4991952;28;20570;-69
2022/06/28 07:20:14;;;;;;;7.43;4.20;;;29.70;99.90;;;;;;4991764;28;20629;-68
2022/06/28 07:22:42;;;;;;;4.70;3.83;;;29.70;99.90;;;;;;4991994;28;20584;-69
2022/06/28 07:25:10;;;;;;;8.20;4.15;;;29.70;99.60;;;;;;4989907;28;20238;-70
2022/06/28 07:27:37;;;;;;;8.48;4.28;;;29.80;99.20;;;;;;4979277;28;20296;-69
2022/06/28 07:30:04;;;;;;;5.97;3.83;;;29.80;98.50;;;;;;4972150;28;20315;-70
2022/06/28 07:32:31;;;;;;;12.10;4.40;;;29.80;98.10;;;;;;4987482;28;20258;-69
2022/06/28 07:34:58;;;;;;;8.32;4.32;;;29.80;98.40;;;;;;4990326;28;20301;-70
2022/06/28 07:37:25;;;;;;;10.05;4.70;;;29.80;98.70;;;;;;4991721;28;20599;-69
2022/06/28 07:39:53;;;;;;;7.18;4.28;;;29.90;98.70;;;;;;4992051;28;20242;-70
2022/06/28 07:42:20;;;;;;;11.95;4.28;;;29.90;97.90;;;;;;4981680;28;20295;-68
2022/06/28 07:44:47;;;;;;;4.95;4.07;;;30.00;97.70;;;;;;4987807;28;20295;-68
2022/06/28 07:47:14;;;;;;;4.03;3.53;;;30.00;96.90;;;;;;4991054;28;20223;-70
2022/06/28 07:52:37;;;;;;;5.25;3.60;;;30.10;95.30;;;;;;4977199;28;20250;-68
2022/06/28 07:55:08;;;;;;;4.53;3.70;;;30.20;95.90;;;;;;4990318;28;20203;-71
2022/06/28 07:57:35;;;;;;;4.97;3.35;;;30.10;94.50;;;;;;4990820;28;20239;-70
2022/06/28 08:00:03;;;;;;;5.55;4.05;;;30.20;94.70;;;;;;4991516;28;20199;-71
2022/06/28 08:02:30;;;;;;;7.88;4.53;;;30.20;96.10;;;;;;4992322;28;20720;-70
2022/06/28 08:04:57;;;;;;;4.70;4.20;;;30.20;96.30;;;;;;4991512;28;20211;-71
2022/06/28 08:07:24;;;;;;;4.88;4.10;;;30.30;96.60;;;;;;4990680;28;20718;-71
2022/06/28 08:09:51;;;;;;;9.75;4.45;;;30.30;96.30;;;;;;4991300;28;20227;-72
2022/06/28 08:12:19;;;;;;;5.00;4.50;;;30.30;95.90;;;;;;4985098;28;20211;-72
2022/06/28 08:14:47;;;;;;;4.95;4.35;;;30.30;96.00;;;;;;4991663;28;20210;-71
2022/06/28 08:17:14;;;;;;;4.80;4.30;;;30.40;96.30;;;;;;4991186;28;20306;-73
2022/06/28 08:19:42;;;;;;;4.80;4.40;;;30.40;96.50;;;;;;4991169;28;20211;-70
2022/06/28 08:22:09;;;;;;;5.80;4.45;;;30.40;96.50;;;;;;4992901;28;20579;-71
2022/06/28 08:24:36;;;;;;;6.22;5.60;;;30.40;96.60;;;;;;4991501;28;20593;-71
2022/06/28 08:27:04;;;;;;;6.95;4.82;;;30.30;96.20;;;;;;4990905;28;20227;-71
2022/06/28 08:29:33;;;;;;;8.52;7.47;;;30.30;96.30;;;;;;4990581;28;20203;-70
2022/06/28 08:32:00;;;;;;;7.47;5.15;;;30.30;96.40;;;;;;4989404;28;20215;-71
2022/06/28 08:34:27;;;;;;;6.35;5.03;;;30.40;96.60;;;;;;4993918;28;20591;-71
2022/06/28 08:36:54;;;;;;;7.60;5.32;;;30.50;96.80;;;;;;4992001;28;20619;-73
2022/06/28 08:39:21;;;;;;;6.95;5.13;;;30.50;96.30;;;;;;4991086;28;20313;-72
2022/06/28 08:41:48;;;;;;;5.43;4.93;;;30.50;96.40;;;;;;4989698;28;20215;-71
2022/06/28 08:44:17;;;;;;;5.10;4.60;;;30.50;95.70;;;;;;4984360;28;20253;-71
2022/06/28 08:46:47;;;;;;;6.35;4.65;;;30.60;96.20;;;;;;4989033;28;20223;-71
2022/06/28 08:49:21;;;;;;;7.32;5.20;;;30.60;96.30;;;;;;4990869;28;20203;-70
2022/06/28 08:51:48;;;;;;;6.35;5.22;;;30.70;96.10;;;;;;5027045;28;20262;-72
2022/06/28 08:54:19;;;;;;;5.20;4.70;;;30.70;95.90;;;;;;5044830;28;20348;-73
2022/06/28 08:56:47;;;;;;;5.10;4.60;;;30.80;95.70;;;;;;5046532;28;20638;-73
2022/06/28 08:59:15;;;;;;;5.93;4.50;;;30.90;95.60;;;;;;4998132;28;20203;-72
2022/06/28 09:01:42;;;;;;;8.32;4.90;;;30.90;95.40;;;;;;4979149;28;20295;-69
2022/06/28 09:04:11;;;;;;;8.23;5.45;;;30.90;95.10;;;;;;4974548;28;20245;-74
2022/06/28 09:06:39;;;;;;;16.85;5.57;;;30.90;95.30;;;;;;4991775;28;20284;-72
2022/06/28 09:09:05;;;;;;;6.47;5.70;;;31.00;95.80;;;;;;4991115;28;20576;-71
2022/06/28 09:11:43;;;;;;;15.98;5.65;;;31.10;96.20;;;;;;4982927;28;20307;-75
2022/06/28 09:14:25;;;;;;;10.10;5.40;;;31.10;96.00;;;;;;4977138;28;20199;-69
2022/06/28 09:16:52;;;;;;;7.57;5.22;;;31.30;95.50;;;;;;4979964;28;20625;-69
2022/06/28 09:19:33;;;;;;;5.15;4.70;;;31.40;95.30;;;;;;4983463;28;20301;-70
2022/06/28 09:22:00;;;;;;;6.90;5.22;;;31.40;95.10;;;;;;4990069;28;20651;-70
2022/06/28 09:24:27;;;;;;;5.90;5.13;;;31.40;95.30;;;;;;4989627;28;20628;-71
2022/06/28 09:26:55;;;;;;;9.85;5.10;;;31.40;94.70;;;;;;4990399;28;20306;-73
2022/06/28 09:29:22;;;;;;;5.55;5.00;;;31.30;94.60;;;;;;4990942;28;20643;-70
2022/06/28 09:31:49;;;;;;;6.75;5.03;;;31.40;95.10;;;;;;4982855;28;20214;-71
2022/06/28 09:34:16;;;;;;;7.53;5.40;;;31.40;94.90;;;;;;4988816;28;20722;-73
2022/06/28 09:36:56;;;;;;;12.20;5.28;;;31.40;94.80;;;;;;4988207;28;20207;-72
2022/06/28 09:39:27;;;;;;;7.78;5.00;;;31.40;95.00;;;;;;4991230;28;20665;-73
2022/06/28 09:41:56;;;;;;;5.60;4.72;;;31.40;95.00;;;;;;4990077;28;20191;-72
2022/06/28 09:44:25;;;;;;;5.13;4.72;;;31.50;94.80;;;;;;4990439;28;20226;-73
2022/06/28 09:46:54;;;;;;;8.77;5.38;;;31.40;94.00;;;;;;4985785;28;20219;-77
2022/06/28 09:49:27;;;;;;;7.07;5.03;;;31.30;94.20;;;;;;4998764;28;20230;-76
2022/06/28 09:51:58;;;;;;;5.97;5.35;;;31.30;94.20;;;;;;4987601;28;20322;-73
2022/06/28 09:54:27;;;;;;;7.00;5.80;;;31.20;94.60;;;;;;4971025;28;20235;-77
2022/06/28 09:56:55;;;;;;;9.40;5.10;;;31.20;94.60;;;;;;4988497;28;20367;-74
2022/06/28 09:59:23;;;;;;;6.78;5.38;;;31.30;95.20;;;;;;5038198;28;20211;-73
2022/06/28 10:01:50;;;;;;;8.35;5.20;;;31.30;94.30;;;;;;5091631;28;20209;-78
2022/06/28 10:04:18;;;;;;;5.82;5.30;;;31.30;94.70;;;;;;4992897;28;20708;-72
2022/06/28 10:06:45;;;;;;;6.90;5.68;;;31.20;94.60;;;;;;4993209;28;20563;-74
2022/06/28 10:09:14;;;;;;;5.28;4.78;;;31.20;94.70;;;;;;5002873;28;20202;-75
2022/06/28 10:17:33;;;;;;;26.60;7.15;;;31.30;94.50;;;;;;4973467;28;20211;-74
2022/06/28 10:20:02;;;;;;;20.38;5.82;;;31.40;94.50;;;;;;5003848;28;20222;-74
2022/06/28 10:22:29;;;;;;;6.10;5.40;;;31.40;94.30;;;;;;4978888;28;20645;-72
2022/06/28 10:24:59;;;;;;;7.70;5.38;;;31.40;93.90;;;;;;4986943;28;20203;-73
2022/06/28 10:27:28;;;;;;;5.10;4.68;;;31.50;93.90;;;;;;4981160;28;20619;-75
2022/06/28 10:30:29;;;;;;;6.20;5.15;;;31.60;93.80;;;;;;4987871;28;20302;-74
2022/06/28 10:33:02;;;;;;;7.95;6.15;;;31.60;93.10;;;;;;4974320;28;20261;-71
2022/06/28 10:35:56;;;;;;;7.93;5.60;;;31.70;93.30;;;;;;4974067;28;20818;-72
2022/06/28 10:38:23;;;;;;;7.50;5.32;;;31.80;93.20;;;;;;4979346;28;20287;-72
2022/06/28 10:40:51;;;;;;;6.63;5.90;;;31.80;93.40;;;;;;4998680;28;20233;-72
2022/06/28 10:43:43;;;;;;;8.80;5.22;;;31.80;93.40;;;;;;4991025;28;20203;-74
2022/06/28 10:46:10;;;;;;;7.80;5.40;;;31.90;93.30;;;;;;4981624;28;20291;-73
2022/06/28 10:49:06;;;;;;;9.70;5.72;;;31.90;93.30;;;;;;4973543;28;20224;-70
2022/06/28 10:51:34;;;;;;;6.97;6.00;;;32.00;93.10;;;;;;5022515;28;20227;-72
2022/06/28 10:54:07;;;;;;;6.15;5.55;;;32.10;93.10;;;;;;4996657;28;20195;-71
2022/06/28 10:56:43;;;;;;;8.07;5.60;;;32.20;92.70;;;;;;4992943;28;20191;-69
2022/06/28 10:59:12;;;;;;;8.02;5.38;;;32.10;92.50;;;;;;5016375;28;20194;-72
2022/06/28 11:01:58;;;;;;;6.82;5.30;;;32.10;92.60;;;;;;4994943;28;20577;-72
2022/06/28 11:04:32;;;;;;;6.00;5.38;;;32.00;92.60;;;;;;4999570;28;20210;-74
2022/06/28 11:07:07;;;;;;;7.70;6.18;;;31.90;93.00;;;;;;4993058;28;20202;-77
2022/06/28 11:10:09;;;;;;;6.30;5.57;;;31.90;93.60;;;;;;4992238;28;20264;-73
2022/06/28 11:12:40;;;;;;;7.18;5.75;;;32.00;92.80;;;;;;4932816;28;20283;-75
2022/06/28 11:15:09;;;;;;;7.53;5.68;;;32.00;92.70;;;;;;5000212;28;20292;-73
2022/06/28 11:17:38;;;;;;;6.43;5.30;;;32.00;92.60;;;;;;4989889;28;20201;-75
2022/06/28 11:20:09;;;;;;;6.30;5.30;;;32.00;92.40;;;;;;4929232;28;20229;-73
2022/06/28 11:22:40;;;;;;;6.55;5.88;;;31.90;92.60;;;;;;4955990;28;20194;-73
2022/06/28 11:25:09;;;;;;;8.27;5.70;;;31.90;92.80;;;;;;4947881;28;20213;-73
2022/06/28 11:27:42;;;;;;;6.63;5.85;;;31.90;92.40;;;;;;4932136;29;20364;-75
2022/06/28 11:30:10;;;;;;;6.57;5.43;;;31.90;93.50;;;;;;4931723;29;20230;-71
2022/06/28 11:32:39;;;;;;;8.70;6.18;;;31.90;92.80;;;;;;4931637;29;20296;-73
2022/06/28 11:35:07;;;;;;;6.85;5.50;;;31.90;92.60;;;;;;5024091;28;20360;-73
2022/06/28 11:37:46;;;;;;;10.35;5.80;;;31.90;93.30;;;;;;4956963;28;20279;-72
2022/06/28 11:40:13;;;;;;;6.55;5.90;;;31.80;92.90;;;;;;4913065;29;20204;-74
2022/06/28 11:42:41;;;;;;;7.03;5.90;;;31.80;93.20;;;;;;5008979;28;20295;-74
2022/06/28 11:45:10;;;;;;;7.50;5.80;;;31.80;92.90;;;;;;5006687;28;20290;-73
2022/06/28 11:47:37;;;;;;;10.70;5.60;;;31.80;92.80;;;;;;5007381;28;20689;-75
2022/06/28 11:50:14;;;;;;;10.80;5.97;;;31.90;93.10;;;;;;4992897;28;20207;-71
2022/06/28 11:52:52;;;;;;;6.47;5.45;;;31.90;92.30;;;;;;4977625;28;20249;-72
2022/06/28 11:55:35;;;;;;;9.43;5.93;;;31.90;92.20;;;;;;4991609;28;20381;-72
2022/06/28 11:58:16;;;;;;;13.80;5.93;;;32.00;92.10;;;;;;4993152;28;20290;-73
2022/06/28 12:01:02;;;;;;;11.75;5.90;;;32.10;92.20;;;;;;4993997;28;20703;-73
2022/06/28 12:03:29;;;;;;;7.20;5.60;;;32.10;92.10;;;;;;4991743;28;20282;-73
2022/06/28 12:05:57;;;;;;;6.32;5.68;;;32.10;92.30;;;;;;4990129;28;20215;-72
2022/06/28 12:08:43;;;;;;;7.20;5.40;;;32.00;92.10;;;;;;4986278;28;20223;-72
2022/06/28 12:11:25;;;;;;;5.70;5.10;;;31.90;92.20;;;;;;4989422;28;20195;-72
2022/06/28 12:13:57;;;;;;;9.35;5.45;;;31.90;92.00;;;;;;4991176;28;20712;-73
2022/06/28 12:16:24;;;;;;;27.17;6.55;;;32.00;92.00;;;;;;5037859;28;20689;-72
2022/06/28 12:18:52;;;;;;;6.20;5.60;;;32.10;92.20;;;;;;4974829;28;20290;-72
2022/06/28 12:21:19;;;;;;;6.22;5.50;;;32.10;92.20;;;;;;4989511;28;20294;-72
2022/06/28 12:23:51;;;;;;;6.45;5.70;;;32.10;92.10;;;;;;4990376;28;20306;-76
2022/06/28 12:26:18;;;;;;;7.10;5.13;;;32.10;91.90;;;;;;4981821;28;20554;-71
2022/06/28 12:28:45;;;;;;;28.45;6.95;;;32.10;92.00;;;;;;4980919;28;20280;-72
2022/06/28 12:31:14;;;;;;;11.63;5.57;;;32.10;92.30;;;;;;5001534;28;20279;-71
2022/06/28 12:33:42;;;;;;;10.63;5.45;;;32.10;92.30;;;;;;4992863;28;20210;-73
2022/06/28 12:36:09;;;;;;;11.98;5.95;;;32.20;92.30;;;;;;4988479;28;20636;-74
2022/06/28 12:38:36;;;;;;;7.93;6.10;;;32.20;91.60;;;;;;4991510;28;20558;-71
2022/06/28 12:41:03;;;;;;;8.43;5.50;;;32.30;91.50;;;;;;4990551;28;20221;-73
2022/06/28 12:43:29;;;;;;;6.10;5.32;;;32.20;91.50;;;;;;4971447;28;20261;-71
2022/06/28 12:45:56;;;;;;;7.55;5.40;;;32.20;92.00;;;;;;4984366;28;20207;-72
2022/06/28 12:48:25;;;;;;;5.78;5.18;;;32.20;92.10;;;;;;4991141;28;20276;-69
2022/06/28 12:50:52;;;;;;;6.25;5.50;;;32.20;92.10;;;;;;4991858;28;20270;-73
2022/06/28 12:53:20;;;;;;;10.77;5.78;;;32.20;91.90;;;;;;4989808;28;20771;-72
2022/06/28 12:55:47;;;;;;;7.75;5.30;;;32.20;91.80;;;;;;4990919;28;20242;-73
2022/06/28 12:58:13;;;;;;;9.30;5.93;;;32.20;91.70;;;;;;4991666;28;20203;-70
2022/06/28 13:00:41;;;;;;;6.68;5.63;;;32.30;91.60;;;;;;4991970;28;20361;-71
2022/06/28 13:03:08;;;;;;;7.65;5.10;;;32.30;91.90;;;;;;4991498;28;20210;-67